PAEI METAR and TAF weather

Enter ICAO airport designator
Station Type Date Time Source
PAEI METAR 2020/06/03 15:11 UTC NOAA

PAEI 031511Z 00000KT 10SM -RA BKN049 10/09 A2977 RMK AO2A SLP086 $


Station Type Date Time Source
PAEI Decoded METAR 2020/06/03 15:11 UTC NOAA

Fairbanks, Eielson Air Force Base, AK, United States (PAEI) 64-39N 147-06W 167M
Jun 03, 2020 - 11:11 AM EDT / 2020.06.03 1511 UTC
Wind: Calm:0
Visibility: 10 mile(s):0
Sky conditions: mostly cloudy
Weather: light rain
Temperature: 50 F (10 C)
Dew Point: 48 F (9 C)
Relative Humidity: 93%
Pressure (altimeter): 29.77 in. Hg (1008 hPa)
ob: PAEI 031511Z 00000KT 10SM -RA BKN049 10/09 A2977 RMK AO2A SLP086
cycle: 15

Station Type Date Time Source
PAEI TAF 2020/06/03 14:06 UTC NOAA

TAF TAF PAEI 031400Z 0314/0420 VRB06KT 9999 -SHRA FEW010 SCT030 BKN040 OVC080 610609 611502 QNH2961INS
TEMPO 0314/0320 24010G15KT 8000 -RA BR BKN010
BECMG 0319/0320 27012KT 8000 -SHRA VCTS BKN025CB OVC050 QNH2974INS
BECMG 0323/0324 25008KT 8000 -RA BR VCTS BKN020CB OVC050 QNH2983INS
TEMPO 0402/0406 25012G18KT 6000 -TSRA
BECMG 0406/0407 VRB06KT 9999 VCSH SCT020 BKN060 610605 QNH2986INS
TEMPO 0412/0418 VRB02KT 6000 BR BKN008 TX18/0403Z TN05/0414Z

Example: see airport list